createdAt,value
2023-02-05T00:00:25.926Z,-1.01
2023-02-05T00:01:25.905Z,-0.91
2023-02-05T00:02:25.883Z,-0.91
2023-02-05T00:03:25.892Z,-0.91
2023-02-05T00:04:25.871Z,-0.89
2023-02-05T00:05:25.894Z,-0.89
2023-02-05T00:06:25.858Z,-0.91
2023-02-05T00:07:25.850Z,-0.82
2023-02-05T00:08:25.848Z,-0.85
2023-02-05T00:09:25.834Z,-0.78
2023-02-05T00:10:25.862Z,-0.82
2023-02-05T00:11:25.821Z,-0.80
2023-02-05T00:12:25.810Z,-0.80
2023-02-05T00:13:25.799Z,-0.77
2023-02-05T00:14:25.799Z,-0.85
2023-02-05T00:15:25.819Z,-0.74
2023-02-05T00:16:25.847Z,-0.78
2023-02-05T00:17:25.776Z,-0.75
2023-02-05T00:18:25.762Z,-0.80
2023-02-05T00:19:25.755Z,-0.71
2023-02-05T00:20:25.778Z,-0.72
2023-02-05T00:21:25.738Z,-0.72
2023-02-05T00:22:25.737Z,-0.74
2023-02-05T00:23:25.725Z,-0.80
2023-02-05T00:24:25.718Z,-0.77
2023-02-05T00:25:25.732Z,-0.78
2023-02-05T00:26:25.708Z,-0.68
2023-02-05T00:27:25.693Z,-0.68
2023-02-05T00:28:25.687Z,-0.62
2023-02-05T00:29:25.688Z,-0.71
2023-02-05T00:30:25.704Z,-0.61
2023-02-05T00:31:25.793Z,-0.68
2023-02-05T00:32:25.658Z,-0.77
2023-02-05T00:33:25.651Z,-0.71
2023-02-05T00:34:25.649Z,-0.67
2023-02-05T00:35:25.684Z,-0.61
2023-02-05T00:36:25.636Z,-0.65
2023-02-05T00:37:25.622Z,-0.71
2023-02-05T00:38:25.618Z,-0.70
2023-02-05T00:39:25.609Z,-0.64
2023-02-05T00:40:25.608Z,-0.57
2023-02-05T00:41:25.616Z,-0.64
2023-02-05T00:42:25.586Z,-0.52
2023-02-05T00:43:25.575Z,-0.53
2023-02-05T00:44:25.567Z,-0.65
2023-02-05T00:45:25.566Z,-0.67
2023-02-05T00:46:25.666Z,-0.72
2023-02-05T00:47:25.548Z,-0.67
2023-02-05T00:48:25.539Z,-0.71
2023-02-05T00:49:25.529Z,-0.71
2023-02-05T00:50:25.524Z,-0.71
2023-02-05T00:51:25.546Z,-0.72
2023-02-05T00:52:25.522Z,-0.80
2023-02-05T00:53:25.498Z,-0.83
2023-02-05T00:54:25.492Z,-0.78
2023-02-05T00:55:25.479Z,-0.86
2023-02-05T00:56:25.497Z,-0.93
2023-02-05T00:57:25.467Z,-0.91
2023-02-05T00:58:25.460Z,-0.94
2023-02-05T00:59:25.456Z,-1.02
2023-02-05T01:00:25.437Z,-0.91
2023-02-05T01:01:26.480Z,-0.94
2023-02-05T01:02:25.465Z,-0.96
2023-02-05T01:03:25.426Z,-1.02
2023-02-05T01:04:25.422Z,-0.99
2023-02-05T01:05:25.411Z,-0.93
2023-02-05T01:06:25.442Z,-1.04
2023-02-05T01:07:25.398Z,-1.09
2023-02-05T01:08:25.398Z,-1.08
2023-02-05T01:09:25.381Z,-1.12
2023-02-05T01:10:25.386Z,-1.14
2023-02-05T01:11:25.416Z,-1.22
2023-02-05T01:12:25.364Z,-1.09
2023-02-05T01:13:25.354Z,-1.07
2023-02-05T01:14:25.354Z,-1.17
2023-02-05T01:15:25.338Z,-1.14
2023-02-05T01:16:25.355Z,-1.15
2023-02-05T01:17:25.320Z,-1.14
2023-02-05T01:18:25.328Z,-1.22
2023-02-05T01:19:25.310Z,-1.22
2023-02-05T01:20:25.306Z,-1.26
2023-02-05T01:21:25.344Z,-1.25
2023-02-05T01:22:25.289Z,-1.22
2023-02-05T01:23:25.285Z,-1.19
2023-02-05T01:24:25.274Z,-1.23
2023-02-05T01:25:25.263Z,-1.23
2023-02-05T01:26:25.290Z,-1.27
2023-02-05T01:27:25.250Z,-1.19
2023-02-05T01:28:25.248Z,-1.30
2023-02-05T01:29:25.236Z,-1.22
2023-02-05T01:30:25.226Z,-1.14
2023-02-05T01:31:25.308Z,-1.22
2023-02-05T01:32:25.241Z,-1.25
2023-02-05T01:33:25.207Z,-1.26
2023-02-05T01:34:25.201Z,-1.25
2023-02-05T01:35:25.190Z,-1.32
2023-02-05T01:36:25.182Z,-1.23
2023-02-05T01:37:25.200Z,-1.29
2023-02-05T01:38:25.162Z,-1.29
2023-02-05T01:39:25.161Z,-1.29
2023-02-05T01:40:25.159Z,-1.27
2023-02-05T01:41:25.140Z,-1.32
2023-02-05T01:42:25.161Z,-1.33
2023-02-05T01:43:25.126Z,-1.27
2023-02-05T01:44:25.125Z,-1.27
2023-02-05T01:45:25.133Z,-1.33
2023-02-05T01:46:25.158Z,-1.40
2023-02-05T01:47:25.117Z,-1.38
2023-02-05T01:48:25.082Z,-1.29
2023-02-05T01:49:25.091Z,-1.44
2023-02-05T01:50:26.074Z,-1.40
2023-02-05T01:51:25.062Z,-1.43
2023-02-05T01:52:25.079Z,-1.44
2023-02-05T01:53:25.050Z,-1.53
2023-02-05T01:54:25.034Z,-1.50
2023-02-05T01:55:25.033Z,-1.38
2023-02-05T01:56:25.026Z,-1.43
2023-02-05T01:57:25.041Z,-1.48
2023-02-05T01:58:25.009Z,-1.43
2023-02-05T01:59:25.001Z,-1.56
2023-02-05T02:00:24.996Z,-1.59
2023-02-05T02:01:25.020Z,-1.54
2023-02-05T02:02:25.020Z,-1.54
2023-02-05T02:03:24.972Z,-1.56
2023-02-05T02:04:24.981Z,-1.53
2023-02-05T02:05:24.988Z,-1.58
2023-02-05T02:06:24.948Z,-1.47
2023-02-05T02:07:24.970Z,-1.51
2023-02-05T02:08:24.984Z,-1.53
2023-02-05T02:09:24.950Z,-1.56
2023-02-05T02:10:24.929Z,-1.53
2023-02-05T02:11:24.916Z,-1.61
2023-02-05T02:12:24.940Z,-1.53
2023-02-05T02:13:24.899Z,-1.47
2023-02-05T02:14:24.898Z,-1.46
2023-02-05T02:15:24.887Z,-1.43
2023-02-05T02:16:24.903Z,-1.47
2023-02-05T02:17:24.904Z,-1.46
2023-02-05T02:18:24.864Z,-1.50
2023-02-05T02:19:24.867Z,-1.50
2023-02-05T02:20:24.849Z,-1.54
2023-02-05T02:21:24.842Z,-1.53
2023-02-05T02:22:24.840Z,-1.53
2023-02-05T02:23:24.872Z,-1.54
2023-02-05T02:24:24.823Z,-1.65
2023-02-05T02:25:24.818Z,-1.68
2023-02-05T02:26:24.845Z,-1.66
2023-02-05T02:27:24.822Z,-1.68
2023-02-05T02:28:24.817Z,-1.66
2023-02-05T02:29:24.793Z,-1.68
2023-02-05T02:30:24.846Z,-1.65
2023-02-05T02:31:24.796Z,-1.66
2023-02-05T02:32:24.775Z,-1.53
2023-02-05T02:33:24.784Z,-1.62
2023-02-05T02:34:24.760Z,-1.43
2023-02-05T02:35:24.747Z,-1.61
2023-02-05T02:36:24.746Z,-1.62
2023-02-05T02:37:24.732Z,-1.47
2023-02-05T02:38:24.762Z,-1.48
2023-02-05T02:39:24.719Z,-1.44
2023-02-05T02:40:24.707Z,-1.43
2023-02-05T02:41:24.715Z,-1.35
2023-02-05T02:42:24.692Z,-1.43
2023-02-05T02:43:24.715Z,-1.32
2023-02-05T02:44:24.678Z,-1.25
2023-02-05T02:45:24.677Z,-1.17
2023-02-05T02:46:24.675Z,-1.27
2023-02-05T02:47:25.655Z,-1.22
2023-02-05T02:48:24.676Z,-1.19
2023-02-05T02:49:24.652Z,-1.07
2023-02-05T02:50:24.635Z,-1.08
2023-02-05T02:51:24.631Z,-1.05
2023-02-05T02:52:24.625Z,-0.96
2023-02-05T02:53:24.616Z,-0.97
2023-02-05T02:54:24.636Z,-0.93
2023-02-05T02:55:24.602Z,-0.91
2023-02-05T02:56:24.597Z,-0.82
2023-02-05T02:57:24.589Z,-0.75
2023-02-05T02:58:24.578Z,-0.72
2023-02-05T02:59:24.609Z,-0.78
2023-02-05T03:00:24.573Z,-0.74
2023-02-05T03:01:24.557Z,-0.68
2023-02-05T03:02:24.563Z,-0.65
2023-02-05T03:03:24.614Z,-0.71
2023-02-05T03:04:24.563Z,-0.59
2023-02-05T03:05:24.526Z,-0.62
2023-02-05T03:06:24.517Z,-0.59
2023-02-05T03:07:24.519Z,-0.50
2023-02-05T03:08:24.511Z,-0.54
2023-02-05T03:09:24.522Z,-0.56
2023-02-05T03:10:24.504Z,-0.54
2023-02-05T03:11:24.483Z,-0.39
2023-02-05T03:12:24.473Z,-0.44
2023-02-05T03:13:24.469Z,-0.44
2023-02-05T03:14:24.490Z,-0.41
2023-02-05T03:15:24.449Z,-0.43
2023-02-05T03:16:24.536Z,-0.39
2023-02-05T03:17:24.443Z,-0.44
2023-02-05T03:18:24.434Z,-0.50
2023-02-05T03:19:24.448Z,-0.34
2023-02-05T03:20:24.415Z,-0.28
2023-02-05T03:21:24.406Z,-0.32
2023-02-05T03:22:24.385Z,-0.32
2023-02-05T03:23:25.387Z,-0.35
2023-02-05T03:24:24.415Z,-0.34
2023-02-05T03:25:24.373Z,-0.41
2023-02-05T03:26:24.375Z,-0.26
2023-02-05T03:27:24.359Z,-0.35
2023-02-05T03:28:24.371Z,-0.26
2023-02-05T03:29:24.368Z,-0.21
2023-02-05T03:30:24.338Z,-0.23
2023-02-05T03:31:24.343Z,-0.26
2023-02-05T03:32:24.348Z,-0.21
2023-02-05T03:33:24.319Z,-0.20
2023-02-05T03:34:24.311Z,-0.13
2023-02-05T03:35:24.300Z,-0.18
2023-02-05T03:36:25.303Z,-0.13
2023-02-05T03:37:24.328Z,-0.14
2023-02-05T03:38:24.284Z,0.03
2023-02-05T03:39:24.278Z,-0.03
2023-02-05T03:40:24.275Z,-0.06
2023-02-05T03:41:24.260Z,0.04
2023-02-05T03:42:24.277Z,-0.06
2023-02-05T03:43:24.248Z,-0.03
2023-02-05T03:44:24.425Z,0.03
2023-02-05T03:45:24.274Z,0.00
2023-02-05T03:46:24.224Z,0.04
2023-02-05T03:47:24.241Z,0.07
2023-02-05T03:48:24.210Z,-0.07
2023-02-05T03:49:24.200Z,0.05
2023-02-05T03:50:24.193Z,0.07
2023-02-05T03:51:24.183Z,0.10
2023-02-05T03:52:24.207Z,0.10
2023-02-05T03:53:24.174Z,0.10
2023-02-05T03:54:24.159Z,0.08
2023-02-05T03:55:24.150Z,0.12
2023-02-05T03:56:24.152Z,0.05
2023-02-05T03:57:24.140Z,0.12
2023-02-05T03:58:24.158Z,0.11
2023-02-05T03:59:24.119Z,0.16
2023-02-05T04:00:24.120Z,0.04
2023-02-05T04:01:24.140Z,0.00
2023-02-05T04:02:24.149Z,0.03
2023-02-05T04:03:24.122Z,0.04
2023-02-05T04:04:24.081Z,0.00
2023-02-05T04:05:24.076Z,0.07
2023-02-05T04:06:24.059Z,-0.07
2023-02-05T04:07:24.054Z,-0.03
2023-02-05T04:08:24.073Z,-0.06
2023-02-05T04:09:24.043Z,-0.10
2023-02-05T04:10:24.033Z,0.04
2023-02-05T04:11:24.024Z,0.05
2023-02-05T04:12:24.014Z,-0.07
2023-02-05T04:13:24.030Z,-0.07
2023-02-05T04:14:24.000Z,-0.03
2023-02-05T04:15:23.992Z,0.01
2023-02-05T04:16:23.999Z,0.03
2023-02-05T04:17:23.976Z,-0.07
2023-02-05T04:18:23.994Z,0.01
2023-02-05T04:19:23.961Z,-0.02
2023-02-05T04:20:23.950Z,0.03
2023-02-05T04:21:23.943Z,0.03
2023-02-05T04:22:23.955Z,0.01
2023-02-05T04:23:23.954Z,0.10
2023-02-05T04:24:23.923Z,0.10
2023-02-05T04:25:23.930Z,0.15
2023-02-05T04:26:23.910Z,0.15
2023-02-05T04:27:23.903Z,0.05
2023-02-05T04:28:23.922Z,0.10
2023-02-05T04:29:23.897Z,0.11
2023-02-05T04:30:23.892Z,0.18
2023-02-05T04:31:23.934Z,0.16
2023-02-05T04:32:23.868Z,0.16
2023-02-05T04:33:23.884Z,0.08
2023-02-05T04:34:23.855Z,0.10
2023-02-05T04:35:23.847Z,0.21
2023-02-05T04:36:23.847Z,0.12
2023-02-05T04:37:23.834Z,0.16
2023-02-05T04:38:23.852Z,0.16
2023-02-05T04:39:23.821Z,0.25
2023-02-05T04:40:23.816Z,0.22
2023-02-05T04:41:23.808Z,0.19
2023-02-05T04:42:23.806Z,0.29
2023-02-05T04:43:23.814Z,0.21
2023-02-05T04:44:23.786Z,0.25
2023-02-05T04:45:23.777Z,0.26
2023-02-05T04:46:23.773Z,0.25
2023-02-05T04:47:23.765Z,0.23
2023-02-05T04:48:23.780Z,0.26
2023-02-05T04:49:23.747Z,0.25
2023-02-05T04:50:23.743Z,0.40
2023-02-05T04:51:23.746Z,0.31
2023-02-05T04:52:23.723Z,0.36
2023-02-05T04:53:23.745Z,0.22
2023-02-05T04:54:23.713Z,0.36
2023-02-05T04:55:23.707Z,0.25
2023-02-05T04:56:23.713Z,0.28
2023-02-05T04:57:23.684Z,0.32
2023-02-05T04:58:23.705Z,0.31
2023-02-05T04:59:23.671Z,0.37
2023-02-05T05:00:23.666Z,0.39
2023-02-05T05:01:23.695Z,0.39
2023-02-05T05:02:23.672Z,0.44
2023-02-05T05:03:23.665Z,0.34
2023-02-05T05:04:23.633Z,0.40
2023-02-05T05:05:23.628Z,0.34
2023-02-05T05:06:23.621Z,0.34
2023-02-05T05:07:23.615Z,0.50
2023-02-05T05:08:23.641Z,0.37
2023-02-05T05:09:23.599Z,0.31
2023-02-05T05:10:23.596Z,0.39
2023-02-05T05:11:23.584Z,0.40
2023-02-05T05:12:23.575Z,0.32
2023-02-05T05:13:23.597Z,0.26
2023-02-05T05:14:23.561Z,0.36
2023-02-05T05:15:23.557Z,0.25
2023-02-05T05:16:23.556Z,0.31
2023-02-05T05:17:23.539Z,0.23
2023-02-05T05:18:23.556Z,0.32
2023-02-05T05:19:23.526Z,0.32
2023-02-05T05:20:23.526Z,0.31
2023-02-05T05:21:23.523Z,0.40
2023-02-05T05:22:23.514Z,0.43
2023-02-05T05:23:23.529Z,0.37
2023-02-05T05:24:23.490Z,0.41
2023-02-05T05:25:23.495Z,0.52
2023-02-05T05:26:23.473Z,0.59
2023-02-05T05:27:23.462Z,0.55
2023-02-05T05:28:24.489Z,0.55
2023-02-05T05:29:23.454Z,0.43
2023-02-05T05:30:23.441Z,0.43
2023-02-05T05:31:23.464Z,0.41
2023-02-05T05:32:23.441Z,0.39
2023-02-05T05:33:23.424Z,0.43
2023-02-05T05:34:23.441Z,0.39
2023-02-05T05:35:23.422Z,0.41
2023-02-05T05:36:23.406Z,0.34
2023-02-05T05:37:23.392Z,0.43
2023-02-05T05:38:23.380Z,0.34
2023-02-05T05:39:23.395Z,0.46
2023-02-05T05:40:23.366Z,0.40
2023-02-05T05:41:23.363Z,0.46
2023-02-05T05:42:23.352Z,0.49
2023-02-05T05:43:23.348Z,0.43
2023-02-05T05:44:23.365Z,0.32
2023-02-05T05:45:23.329Z,0.43
2023-02-05T05:46:23.383Z,0.37
2023-02-05T05:47:23.314Z,0.32
2023-02-05T05:48:23.308Z,0.32
2023-02-05T05:49:23.325Z,0.34
2023-02-05T05:50:23.289Z,0.34
2023-02-05T05:51:23.301Z,0.46
2023-02-05T05:52:23.276Z,0.40
2023-02-05T05:53:23.266Z,0.41
2023-02-05T05:54:23.285Z,0.50
2023-02-05T05:55:23.241Z,0.46
2023-02-05T05:56:24.240Z,0.46
2023-02-05T05:57:23.234Z,0.46
2023-02-05T05:58:23.225Z,0.47
2023-02-05T05:59:23.247Z,0.55
2023-02-05T06:00:23.215Z,0.65
2023-02-05T06:01:23.207Z,0.60
2023-02-05T06:02:23.224Z,0.68
2023-02-05T06:03:23.203Z,0.74
2023-02-05T06:04:23.251Z,0.66
2023-02-05T06:05:23.174Z,0.65
2023-02-05T06:06:23.164Z,0.68
2023-02-05T06:07:23.159Z,0.74
2023-02-05T06:08:23.151Z,0.73
2023-02-05T06:09:23.170Z,0.77
2023-02-05T06:10:23.137Z,0.80
2023-02-05T06:11:23.134Z,0.80
2023-02-05T06:12:23.126Z,0.80
2023-02-05T06:13:23.121Z,0.83
2023-02-05T06:14:23.131Z,0.77
2023-02-05T06:15:23.099Z,0.78
2023-02-05T06:16:23.087Z,0.80
2023-02-05T06:17:23.081Z,0.87
2023-02-05T06:18:23.929Z,0.86
2023-02-05T06:19:24.094Z,0.84
2023-02-05T06:20:23.061Z,0.87
2023-02-05T06:21:23.073Z,0.81
2023-02-05T06:22:23.040Z,0.87
2023-02-05T06:23:23.030Z,0.88
2023-02-05T06:24:23.046Z,0.88
2023-02-05T06:25:23.015Z,0.83
2023-02-05T06:26:23.025Z,0.77
2023-02-05T06:27:23.002Z,0.73
2023-02-05T06:28:23.008Z,0.74
2023-02-05T06:29:23.016Z,0.81
2023-02-05T06:30:22.975Z,0.78
2023-02-05T06:31:24.054Z,0.73
2023-02-05T06:32:24.613Z,0.77
2023-02-05T06:33:22.958Z,0.66
2023-02-05T06:34:22.972Z,0.69
2023-02-05T06:35:22.949Z,0.62
2023-02-05T06:36:22.931Z,0.65
2023-02-05T06:37:26.802Z,0.69
2023-02-05T06:38:24.914Z,0.66
2023-02-05T06:39:25.128Z,0.63
2023-02-05T06:40:23.912Z,0.60
2023-02-05T06:41:22.895Z,0.65
2023-02-05T06:42:22.889Z,0.74
2023-02-05T06:43:22.875Z,0.70
2023-02-05T06:44:22.900Z,0.80
2023-02-05T06:45:22.863Z,0.73
2023-02-05T06:46:22.880Z,0.88
2023-02-05T06:47:22.844Z,0.77
2023-02-05T06:48:22.839Z,0.80
2023-02-05T06:49:22.852Z,0.76
2023-02-05T06:50:22.822Z,0.65
2023-02-05T06:51:22.814Z,0.77
2023-02-05T06:52:22.809Z,0.77
2023-02-05T06:53:22.802Z,0.69
2023-02-05T06:54:22.819Z,0.74
2023-02-05T06:55:22.778Z,0.77
2023-02-05T06:56:22.770Z,0.73
2023-02-05T06:57:22.763Z,0.73
2023-02-05T06:58:22.761Z,0.73
2023-02-05T06:59:22.787Z,0.66
2023-02-05T07:00:22.739Z,0.69
2023-02-05T07:01:22.757Z,0.80
2023-02-05T07:02:22.768Z,0.80
2023-02-05T07:03:22.725Z,0.80
2023-02-05T07:04:22.712Z,0.80
2023-02-05T07:05:22.730Z,0.83
2023-02-05T07:06:22.699Z,0.88
2023-02-05T07:07:22.697Z,0.81
2023-02-05T07:08:22.683Z,0.86
2023-02-05T07:09:22.676Z,0.83
2023-02-05T07:10:22.699Z,0.87
2023-02-05T07:11:22.660Z,0.88
2023-02-05T07:12:22.649Z,0.87
2023-02-05T07:13:22.646Z,0.88
2023-02-05T07:14:22.633Z,0.88
2023-02-05T07:15:22.648Z,0.81
2023-02-05T07:16:22.655Z,0.81
2023-02-05T07:17:22.613Z,0.94
2023-02-05T07:18:22.608Z,0.96
2023-02-05T07:19:22.600Z,0.96
2023-02-05T07:20:22.624Z,0.95
2023-02-05T07:21:22.582Z,0.92
2023-02-05T07:22:22.586Z,1.01
2023-02-05T07:23:22.569Z,0.95
2023-02-05T07:24:22.577Z,1.02
2023-02-05T07:25:22.590Z,0.92
2023-02-05T07:26:22.545Z,0.95
2023-02-05T07:27:22.535Z,1.02
2023-02-05T07:28:22.531Z,0.95
2023-02-05T07:29:22.531Z,0.99
2023-02-05T07:30:22.542Z,1.01
2023-02-05T07:31:22.716Z,1.06
2023-02-05T07:32:22.498Z,1.14
2023-02-05T07:33:22.497Z,1.08
2023-02-05T07:34:22.494Z,1.17
2023-02-05T07:35:22.498Z,1.19
2023-02-05T07:36:22.476Z,1.08
2023-02-05T07:37:22.462Z,1.23
2023-02-05T07:38:22.457Z,1.17
2023-02-05T07:39:22.442Z,1.24
2023-02-05T07:40:22.459Z,1.26
2023-02-05T07:41:22.429Z,1.30
2023-02-05T07:42:22.418Z,1.34
2023-02-05T07:43:22.410Z,1.37
2023-02-05T07:44:22.404Z,1.38
2023-02-05T07:45:22.419Z,1.32
2023-02-05T07:46:22.445Z,1.35
2023-02-05T07:47:22.405Z,1.42
2023-02-05T07:48:22.372Z,1.45
2023-02-05T07:49:22.383Z,1.44
2023-02-05T07:50:22.359Z,1.45
2023-02-05T07:51:23.341Z,1.37
2023-02-05T07:52:22.341Z,1.48
2023-02-05T07:53:22.329Z,1.38
2023-02-05T07:54:22.327Z,1.48
2023-02-05T07:55:22.351Z,1.48
2023-02-05T07:56:22.313Z,1.50
2023-02-05T07:57:22.301Z,1.53
2023-02-05T07:58:22.289Z,1.48
2023-02-05T07:59:22.283Z,1.49
2023-02-05T08:00:22.304Z,1.44
2023-02-05T08:01:22.361Z,1.52
2023-02-05T08:02:22.260Z,1.48
2023-02-05T08:03:23.413Z,1.56
2023-02-05T08:04:23.301Z,1.50
2023-02-05T08:05:22.261Z,1.50
2023-02-05T08:06:22.231Z,1.48
2023-02-05T08:07:22.219Z,1.62
2023-02-05T08:08:22.214Z,1.62
2023-02-05T08:09:22.208Z,1.60
2023-02-05T08:10:22.222Z,1.62
2023-02-05T08:11:22.191Z,1.62
2023-02-05T08:12:22.181Z,1.62
2023-02-05T08:13:22.172Z,1.68
2023-02-05T08:14:22.161Z,1.62
2023-02-05T08:15:22.190Z,1.73
2023-02-05T08:16:22.221Z,1.78
2023-02-05T08:17:22.141Z,1.78
2023-02-05T08:18:22.152Z,1.77
2023-02-05T08:19:22.130Z,1.84
2023-02-05T08:20:22.148Z,1.84
2023-02-05T08:21:22.186Z,1.77
2023-02-05T08:22:22.102Z,1.77
2023-02-05T08:23:22.097Z,1.88
2023-02-05T08:24:22.083Z,1.78
2023-02-05T08:25:22.102Z,1.87
2023-02-05T08:26:22.073Z,1.88
2023-02-05T08:27:22.060Z,1.78
2023-02-05T08:28:22.048Z,1.88
2023-02-05T08:29:22.046Z,1.92
2023-02-05T08:30:22.058Z,1.80
2023-02-05T08:31:22.134Z,1.87
2023-02-05T08:32:22.021Z,1.81
2023-02-05T08:33:22.008Z,1.73
2023-02-05T08:34:22.003Z,1.87
2023-02-05T08:35:22.017Z,1.88
2023-02-05T08:36:21.999Z,1.76
2023-02-05T08:37:22.034Z,1.80
2023-02-05T08:38:21.969Z,1.78
2023-02-05T08:39:21.967Z,1.85
2023-02-05T08:40:21.984Z,1.77
2023-02-05T08:41:21.946Z,1.74
2023-02-05T08:42:21.944Z,1.78
2023-02-05T08:43:21.929Z,1.73
2023-02-05T08:44:21.921Z,1.73
2023-02-05T08:45:21.910Z,1.80
2023-02-05T08:46:21.935Z,1.84
2023-02-05T08:47:21.904Z,1.77
2023-02-05T08:48:21.889Z,1.84
2023-02-05T08:49:21.879Z,1.81
2023-02-05T08:50:21.878Z,1.92
2023-02-05T08:51:21.896Z,1.87
2023-02-05T08:52:21.859Z,1.95
2023-02-05T08:53:21.852Z,1.99
2023-02-05T08:54:21.841Z,2.06
2023-02-05T08:55:21.839Z,2.00
2023-02-05T08:56:21.854Z,2.04
2023-02-05T08:57:21.823Z,2.08
2023-02-05T08:58:21.814Z,2.08
2023-02-05T08:59:21.806Z,2.06
2023-02-05T09:00:21.793Z,2.13
2023-02-05T09:01:21.843Z,2.07
2023-02-05T09:02:21.777Z,2.00
2023-02-05T09:03:21.769Z,2.08
2023-02-05T09:04:21.794Z,1.99
2023-02-05T09:05:21.757Z,2.00
2023-02-05T09:06:21.782Z,1.95
2023-02-05T09:07:21.742Z,2.04
2023-02-05T09:08:21.732Z,2.00
2023-02-05T09:09:21.722Z,2.11
2023-02-05T09:10:21.718Z,1.92
2023-02-05T09:11:21.737Z,2.06
2023-02-05T09:12:21.708Z,2.02
2023-02-05T09:13:21.705Z,1.94
2023-02-05T09:14:21.686Z,2.00
2023-02-05T09:15:21.686Z,1.91
2023-02-05T09:16:21.728Z,1.85
2023-02-05T09:17:21.656Z,1.74
2023-02-05T09:18:21.652Z,1.87
2023-02-05T09:19:21.650Z,1.87
2023-02-05T09:20:21.637Z,1.80
2023-02-05T09:21:21.660Z,1.87
2023-02-05T09:22:21.632Z,1.87
2023-02-05T09:23:21.654Z,1.91
2023-02-05T09:24:21.610Z,1.87
2023-02-05T09:25:21.603Z,1.87
2023-02-05T09:26:21.619Z,1.97
2023-02-05T09:27:21.587Z,2.06
2023-02-05T09:28:21.581Z,2.00
2023-02-05T09:29:21.576Z,1.94
2023-02-05T09:30:21.566Z,2.11
2023-02-05T09:31:21.712Z,2.17
2023-02-05T09:32:21.541Z,2.13
2023-02-05T09:33:21.542Z,2.07
2023-02-05T09:34:21.531Z,2.11
2023-02-05T09:35:21.529Z,2.02
2023-02-05T09:36:21.551Z,2.11
2023-02-05T09:37:21.506Z,2.08
2023-02-05T09:38:21.508Z,2.07
2023-02-05T09:39:52.417Z,1.88
2023-02-05T09:40:23.521Z,2.08
2023-02-05T09:41:21.498Z,2.13
2023-02-05T09:42:21.500Z,2.06
2023-02-05T09:43:21.468Z,2.13
2023-02-05T09:44:21.462Z,2.06
2023-02-05T09:45:21.460Z,2.14
2023-02-05T09:46:21.484Z,2.11
2023-02-05T09:47:21.434Z,2.06
2023-02-05T09:48:21.428Z,2.10
2023-02-05T09:49:21.416Z,2.13
2023-02-05T09:50:21.417Z,2.14
2023-02-05T09:51:21.425Z,2.18
2023-02-05T09:52:21.393Z,2.26
2023-02-05T09:53:21.385Z,2.13
2023-02-05T09:54:21.380Z,2.20
2023-02-05T09:55:21.387Z,2.14
2023-02-05T09:56:21.378Z,2.26
2023-02-05T09:57:22.353Z,2.25
2023-02-05T09:58:21.351Z,2.17
2023-02-05T09:59:21.331Z,2.25
2023-02-05T10:00:21.335Z,2.25
2023-02-05T10:01:21.390Z,2.18
2023-02-05T10:02:21.309Z,2.29
2023-02-05T10:03:21.298Z,2.32
2023-02-05T10:04:21.319Z,2.24
2023-02-05T10:05:21.283Z,2.31
2023-02-05T10:06:21.305Z,2.31
2023-02-05T10:07:21.264Z,2.31
2023-02-05T10:08:21.270Z,2.31
2023-02-05T10:09:21.251Z,2.35
2023-02-05T10:10:21.241Z,2.32
2023-02-05T10:11:21.258Z,2.36
2023-02-05T10:12:21.224Z,2.39
2023-02-05T10:13:21.218Z,2.49
2023-02-05T10:14:21.211Z,2.51
2023-02-05T10:15:21.220Z,2.57
2023-02-05T10:16:21.228Z,2.57
2023-02-05T10:17:21.188Z,2.61
2023-02-05T10:18:21.182Z,2.61
2023-02-05T10:19:21.187Z,2.56
2023-02-05T10:20:21.167Z,2.53
2023-02-05T10:21:21.155Z,2.43
2023-02-05T10:22:21.171Z,2.56
2023-02-05T10:23:21.154Z,2.51
2023-02-05T10:24:21.126Z,2.53
2023-02-05T10:25:21.121Z,2.54
2023-02-05T10:26:21.123Z,2.51
2023-02-05T10:27:21.137Z,2.54
2023-02-05T10:28:21.103Z,2.56
2023-02-05T10:29:21.097Z,2.62
2023-02-05T10:30:21.123Z,2.57
2023-02-05T10:31:21.208Z,2.46
2023-02-05T10:32:21.101Z,2.50
2023-02-05T10:33:21.067Z,2.44
2023-02-05T10:34:21.063Z,2.39
2023-02-05T10:35:21.059Z,2.46
2023-02-05T10:36:21.053Z,2.42
2023-02-05T10:37:21.071Z,2.49
2023-02-05T10:38:21.028Z,2.60
2023-02-05T10:39:21.029Z,2.57
2023-02-05T10:40:21.038Z,2.56
2023-02-05T10:41:21.015Z,2.57
2023-02-05T10:42:21.030Z,2.54
2023-02-05T10:43:20.985Z,2.64
2023-02-05T10:44:20.978Z,2.61
2023-02-05T10:45:20.983Z,2.67
2023-02-05T10:46:20.999Z,2.64
2023-02-05T10:47:20.993Z,2.68
2023-02-05T10:48:20.949Z,2.72
2023-02-05T10:49:20.936Z,2.68
2023-02-05T10:50:21.936Z,2.79
2023-02-05T10:51:20.928Z,2.68
2023-02-05T10:52:20.940Z,2.72
2023-02-05T10:53:20.910Z,2.71
2023-02-05T10:54:20.902Z,2.67
2023-02-05T10:55:20.894Z,2.67
2023-02-05T10:56:20.877Z,2.62
2023-02-05T10:57:21.916Z,2.71
2023-02-05T10:58:20.870Z,2.83
2023-02-05T10:59:20.864Z,2.74
2023-02-05T11:00:20.984Z,2.82
2023-02-05T11:01:20.873Z,2.86
2023-02-05T11:02:20.936Z,2.95
2023-02-05T11:03:20.832Z,2.86
2023-02-05T11:04:20.823Z,2.93
2023-02-05T11:05:20.817Z,3.04
2023-02-05T11:06:20.807Z,3.07
2023-02-05T11:07:20.833Z,3.00
2023-02-05T11:08:20.788Z,3.07
2023-02-05T11:09:20.784Z,3.11
2023-02-05T11:10:20.774Z,3.14
2023-02-05T11:11:20.770Z,3.01
2023-02-05T11:12:20.788Z,3.14
2023-02-05T11:13:20.755Z,3.11
2023-02-05T11:14:20.743Z,3.21
2023-02-05T11:15:20.736Z,3.23
2023-02-05T11:16:20.756Z,3.11
2023-02-05T11:17:20.728Z,3.21
2023-02-05T11:18:20.738Z,3.22
2023-02-05T11:19:21.708Z,3.08
2023-02-05T11:20:20.696Z,3.25
2023-02-05T11:21:20.686Z,3.04
2023-02-05T11:22:20.720Z,3.01
2023-02-05T11:23:20.674Z,3.01
2023-02-05T11:24:20.674Z,2.97
2023-02-05T11:25:20.670Z,2.92
2023-02-05T11:26:20.671Z,2.97
2023-02-05T11:27:20.639Z,2.89
2023-02-05T11:28:20.766Z,2.95
2023-02-05T11:29:20.647Z,2.87
2023-02-05T11:30:32.640Z,2.89
2023-02-05T11:31:22.690Z,2.83
2023-02-05T11:32:20.741Z,2.86
2023-02-05T11:33:20.631Z,2.77
2023-02-05T11:34:20.595Z,2.74
2023-02-05T11:35:20.589Z,2.85
2023-02-05T11:36:20.585Z,2.86
2023-02-05T11:37:20.566Z,2.74
2023-02-05T11:38:20.587Z,2.80
2023-02-05T11:39:20.556Z,2.83
2023-02-05T11:40:20.549Z,2.80
2023-02-05T11:41:20.537Z,2.80
2023-02-05T11:42:20.540Z,2.85
2023-02-05T11:43:20.546Z,2.82
2023-02-05T11:44:20.536Z,2.83
2023-02-05T11:45:20.510Z,2.89
2023-02-05T11:46:20.522Z,2.89
2023-02-05T11:47:20.485Z,2.86
2023-02-05T11:48:20.504Z,2.87
2023-02-05T11:49:20.478Z,2.92
2023-02-05T11:50:20.467Z,2.92
2023-02-05T11:51:20.457Z,3.10
2023-02-05T11:52:20.447Z,3.07
2023-02-05T11:53:20.474Z,3.04
2023-02-05T11:54:20.457Z,3.16
2023-02-05T11:55:20.428Z,3.16
2023-02-05T11:56:22.264Z,3.22
2023-02-05T11:57:21.413Z,3.28
2023-02-05T11:58:31.443Z,3.18
2023-02-05T11:59:22.416Z,3.21
2023-02-05T12:00:20.403Z,3.21
2023-02-05T12:01:20.387Z,3.18
2023-02-05T12:02:22.088Z,3.22
2023-02-05T12:03:21.475Z,3.23
2023-02-05T12:04:20.363Z,3.29
2023-02-05T12:05:20.358Z,3.29
2023-02-05T12:06:20.353Z,3.23
2023-02-05T12:07:20.341Z,3.25
2023-02-05T12:08:20.360Z,3.29
2023-02-05T12:09:20.329Z,3.22
2023-02-05T12:10:20.317Z,3.26
2023-02-05T12:11:20.313Z,3.23
2023-02-05T12:12:20.289Z,3.26
2023-02-05T12:13:21.325Z,3.28
2023-02-05T12:14:20.297Z,3.25
2023-02-05T12:15:20.291Z,3.36
2023-02-05T12:16:20.332Z,3.41
2023-02-05T12:17:20.273Z,3.18
2023-02-05T12:18:20.261Z,3.28
2023-02-05T12:19:20.283Z,3.23
2023-02-05T12:20:20.245Z,3.25
2023-02-05T12:21:20.232Z,3.19
2023-02-05T12:22:20.227Z,3.18
2023-02-05T12:23:20.216Z,3.03
2023-02-05T12:24:20.232Z,3.16
2023-02-05T12:25:20.217Z,3.07
2023-02-05T12:26:20.199Z,3.00
2023-02-05T12:27:20.189Z,3.03
2023-02-05T12:28:20.183Z,2.92
2023-02-05T12:29:20.194Z,2.89
2023-02-05T12:30:20.242Z,2.77
2023-02-05T12:31:20.187Z,2.86
2023-02-05T12:32:20.142Z,2.83
2023-02-05T12:33:20.138Z,2.74
2023-02-05T12:34:20.159Z,2.79
2023-02-05T12:35:20.122Z,2.79
2023-02-05T12:36:20.124Z,2.87
2023-02-05T12:37:20.108Z,2.92
2023-02-05T12:38:31.501Z,2.82
2023-02-05T12:39:22.118Z,2.77
2023-02-05T12:40:20.084Z,2.79
2023-02-05T12:41:20.081Z,2.60
2023-02-05T12:42:20.070Z,2.56
2023-02-05T12:43:20.059Z,2.47
2023-02-05T12:44:20.083Z,2.42
2023-02-05T12:45:20.046Z,2.29
2023-02-05T12:46:20.096Z,2.32
2023-02-05T12:47:20.036Z,2.26
2023-02-05T12:48:20.020Z,2.25
2023-02-05T12:49:20.015Z,2.22
2023-02-05T12:50:20.028Z,2.14
2023-02-05T12:51:20.002Z,2.18
2023-02-05T12:52:19.993Z,2.18
2023-02-05T12:53:19.984Z,2.25
2023-02-05T12:54:19.978Z,2.26
2023-02-05T12:55:21.929Z,2.28
2023-02-05T12:56:19.957Z,2.32
2023-02-05T12:57:19.952Z,2.36
2023-02-05T12:58:19.943Z,2.36
2023-02-05T12:59:19.931Z,2.38
2023-02-05T13:00:19.951Z,2.49
2023-02-05T13:01:19.999Z,2.53
2023-02-05T13:02:19.912Z,2.56
2023-02-05T13:03:19.909Z,2.60
2023-02-05T13:04:19.920Z,2.69
2023-02-05T13:05:19.917Z,2.68
2023-02-05T13:06:19.879Z,2.67
2023-02-05T13:07:19.870Z,2.72
2023-02-05T13:08:19.865Z,2.69
2023-02-05T13:09:19.857Z,2.74
2023-02-05T13:10:19.875Z,2.83